Time;durP1;ratioP1;P1;durP2;ratioP2;P2;SDS_P1;SDS_P2;PMS_P1;PMS_P2;Temp;Humidity;BMP_temperature;BMP_pressure;BME280_temperature;BME280_humidity;BME280_pressure;Samples;Min_cycle;Max_cycle;Signal;HPM_P1;HPM_P2
2021/12/10 00:01:29;;;;;;;34.45;15.40;;;;;;;5.67;68.78;99706.75;5126483;28;20416;-48
2021/12/10 00:04:04;;;;;;;31.25;15.73;;;;;;;5.67;68.57;99700.69;5124434;28;20454;-43
2021/12/10 00:06:40;;;;;;;37.85;17.63;;;;;;;5.66;68.66;99696.41;5129971;28;20435;-43
2021/12/10 00:09:17;;;;;;;36.90;15.20;;;;;;;5.59;68.66;99696.16;5126151;28;20434;-44
2021/12/10 00:11:56;;;;;;;31.77;14.75;;;;;;;5.55;68.67;99689.56;5128235;28;20420;-43
2021/12/10 00:14:31;;;;;;;32.85;16.02;;;;;;;5.60;68.78;99691.75;5124996;28;20510;-48
2021/12/10 00:17:08;;;;;;;39.65;15.32;;;;;;;5.63;68.73;99694.06;5126814;28;20954;-42
2021/12/10 00:19:46;;;;;;;32.67;14.05;;;;;;;5.61;68.59;99673.28;5126235;28;20499;-43
2021/12/10 00:22:23;;;;;;;30.73;14.13;;;;;;;5.51;68.51;99665.47;5126970;28;20422;-43
2021/12/10 00:24:56;;;;;;;35.15;14.68;;;;;;;5.51;68.79;99665.47;5128401;28;20428;-43
2021/12/10 00:27:32;;;;;;;34.20;15.10;;;;;;;5.49;68.59;99654.31;5124151;28;20420;-45
2021/12/10 00:30:12;;;;;;;26.67;14.05;;;;;;;5.44;68.68;99661.78;5127619;28;20416;-44
2021/12/10 00:32:57;;;;;;;30.92;13.70;;;;;;;5.44;68.69;99660.94;5127524;28;20985;-44
2021/12/10 00:35:33;;;;;;;31.85;14.07;;;;;;;5.44;68.95;99656.53;5121672;28;20404;-46
2021/12/10 00:38:06;;;;;;;38.65;14.38;;;;;;;5.46;68.57;99651.97;5129362;28;20431;-47
2021/12/10 00:40:39;;;;;;;31.65;13.20;;;;;;;5.43;68.69;99649.66;5126901;28;20428;-43
2021/12/10 00:43:12;;;;;;;24.88;14.10;;;;;;;5.13;68.43;99592.34;5125269;28;20432;-43
2021/12/10 00:45:46;;;;;;;31.70;14.82;;;;;;;5.44;68.59;99646.06;5127012;28;20904;-42
2021/12/10 00:48:19;;;;;;;34.78;15.45;;;;;;;5.44;68.58;99635.59;5126436;28;20412;-43
2021/12/10 00:50:55;;;;;;;30.85;15.57;;;;;;;5.34;68.63;99615.66;5125962;28;20411;-42
2021/12/10 00:53:27;;;;;;;34.65;14.82;;;;;;;5.40;68.65;99628.19;5125903;28;20428;-47
2021/12/10 00:56:00;;;;;;;34.17;15.57;;;;;;;5.36;68.93;99626.81;5124439;28;20442;-43
2021/12/10 00:58:34;;;;;;;30.80;15.55;;;;;;;5.33;68.95;99617.47;5127274;28;20412;-42
2021/12/10 01:01:11;;;;;;;40.35;16.65;;;;;;;5.23;68.89;99598.34;5125503;28;20443;-43
2021/12/10 01:03:49;;;;;;;32.80;17.05;;;;;;;5.30;68.93;99596.81;5122245;28;20595;-43
2021/12/10 01:06:23;;;;;;;35.87;17.07;;;;;;;5.29;68.82;99595.16;5126073;28;20432;-44
2021/12/10 01:08:58;;;;;;;30.77;16.42;;;;;;;4.96;68.77;99526.75;5128274;28;20854;-43
2021/12/10 01:11:35;;;;;;;33.40;16.52;;;;;;;5.29;68.74;99588.13;5123315;28;20447;-45
2021/12/10 01:14:19;;;;;;;31.95;15.52;;;;;;;5.23;68.84;99586.13;5124985;28;20440;-43
2021/12/10 01:25:34;;;;;;;33.50;15.53;;;;;;;5.07;68.93;99567.59;5125726;28;20424;-43
2021/12/10 01:28:10;;;;;;;28.80;16.20;;;;;;;5.07;68.99;99565.78;5122208;28;20490;-44
2021/12/10 01:30:43;;;;;;;41.75;18.35;;;;;;;5.09;69.06;99561.25;5126754;28;20483;-44
2021/12/10 01:33:19;;;;;;;36.45;19.23;;;;;;;5.14;68.92;99554.72;5124358;28;20430;-44
2021/12/10 01:35:56;;;;;;;30.48;17.48;;;;;;;4.54;68.71;99459.22;5128254;28;20911;-44
2021/12/10 01:38:31;;;;;;;35.63;19.05;;;;;;;5.13;68.80;99553.09;5123011;28;20904;-47
2021/12/10 01:41:08;;;;;;;34.13;18.15;;;;;;;5.11;68.82;99547.19;5125951;28;20419;-45
2021/12/10 01:43:43;;;;;;;45.40;19.40;;;;;;;5.09;68.92;99545.53;5126631;28;20921;-43
2021/12/10 01:46:25;;;;;;;26.67;16.52;;;;;;;5.05;68.88;99531.09;5127231;28;20417;-44
2021/12/10 01:49:04;;;;;;;44.40;19.77;;;;;;;5.05;68.99;99532.91;5124382;28;20922;-45
2021/12/10 01:51:40;;;;;;;36.30;20.40;;;;;;;5.03;68.88;99529.59;5124174;28;20905;-44
2021/12/10 01:54:21;;;;;;;32.95;19.45;;;;;;;5.02;69.03;99527.97;5126511;28;20435;-44
2021/12/10 01:56:56;;;;;;;36.75;17.75;;;;;;;4.96;69.04;99521.53;5125511;28;20472;-43
2021/12/10 01:59:32;;;;;;;31.33;17.07;;;;;;;4.93;69.07;99508.72;5123640;28;20491;-43
2021/12/10 02:02:11;;;;;;;34.88;21.10;;;;;;;4.91;68.85;99505.41;5130330;28;20416;-43
2021/12/10 02:04:47;;;;;;;35.00;19.92;;;;;;;4.94;69.05;99505.13;5127521;28;20788;-48
2021/12/10 02:07:25;;;;;;;33.83;19.30;;;;;;;4.95;68.85;99488.44;5131343;28;20427;-43
2021/12/10 02:09:57;;;;;;;31.17;18.00;;;;;;;4.94;68.80;99492.06;5127093;28;20424;-44
2021/12/10 02:12:30;;;;;;;30.33;19.52;;;;;;;4.91;69.07;99494.13;5128010;28;20423;-42
2021/12/10 02:15:04;;;;;;;39.28;20.38;;;;;;;4.82;68.82;99474.91;5129605;28;20860;-42
2021/12/10 02:17:40;;;;;;;33.63;19.33;;;;;;;4.96;68.89;99489.31;5127246;28;20455;-45
2021/12/10 02:20:18;;;;;;;30.05;18.33;;;;;;;4.93;68.80;99487.78;5129523;28;20937;-43
2021/12/10 02:22:52;;;;;;;35.95;19.75;;;;;;;4.93;68.92;99474.72;5127591;28;20507;-43
2021/12/10 02:25:30;;;;;;;42.33;18.80;;;;;;;4.96;69.10;99461.34;5128959;28;20490;-43
2021/12/10 02:28:02;;;;;;;27.67;17.50;;;;;;;4.95;68.83;99464.91;5127027;28;20518;-44
2021/12/10 02:30:35;;;;;;;28.75;17.73;;;;;;;4.93;68.75;99458.19;5130030;28;20420;-43
2021/12/10 02:33:29;;;;;;;33.22;20.08;;;;;;;4.91;68.97;99450.47;5128420;28;20430;-45
2021/12/10 02:36:02;;;;;;;31.87;18.37;;;;;;;4.92;68.71;99446.88;5126501;28;20418;-44
2021/12/10 02:38:36;;;;;;;35.60;21.27;;;;;;;4.93;68.77;99440.69;5128676;28;20464;-44
2021/12/10 02:41:08;;;;;;;43.55;26.23;;;;;;;4.92;68.77;99438.22;5130527;28;20428;-43
2021/12/10 02:43:41;;;;;;;40.05;25.02;;;;;;;4.91;68.85;99434.78;5128532;28;20443;-44
2021/12/10 02:46:16;;;;;;;37.85;22.48;;;;;;;4.88;68.85;99429.84;5130440;28;20424;-45
2021/12/10 02:48:48;;;;;;;37.75;24.23;;;;;;;4.87;68.92;99428.22;5127969;28;20788;-46
2021/12/10 02:51:21;;;;;;;41.63;24.42;;;;;;;4.87;68.86;99420.38;5131111;28;20839;-43
2021/12/10 02:53:55;;;;;;;36.17;22.15;;;;;;;4.87;68.96;99412.53;5127938;28;20915;-42
2021/12/10 02:56:28;;;;;;;43.40;21.53;;;;;;;4.88;68.94;99414.16;5127316;28;20937;-45
2021/12/10 02:59:02;;;;;;;36.13;17.60;;;;;;;4.89;68.96;99414.97;5128133;28;20432;-43
2021/12/10 03:01:40;;;;;;;39.63;21.13;;;;;;;4.91;68.74;99411.25;5129422;28;20477;-44
2021/12/10 03:04:13;;;;;;;30.70;21.50;;;;;;;4.94;68.70;99408.34;5127230;28;20868;-45
2021/12/10 03:06:51;;;;;;;35.80;22.90;;;;;;;4.86;68.65;99389.94;5124460;28;20459;-43
2021/12/10 03:09:27;;;;;;;32.47;21.77;;;;;;;4.89;68.89;99400.09;5121460;28;20588;-42
2021/12/10 03:12:00;;;;;;;28.60;18.13;;;;;;;4.88;68.94;99408.94;5112402;28;20420;-44
2021/12/10 03:14:36;;;;;;;32.47;18.05;;;;;;;4.86;69.02;99389.94;5127314;28;20431;-45
2021/12/10 03:17:14;;;;;;;29.00;17.33;;;;;;;4.89;68.94;99386.19;5122443;28;20415;-45
2021/12/10 03:19:47;;;;;;;30.30;15.68;;;;;;;4.92;68.62;99388.50;5122360;28;20930;-43
2021/12/10 03:22:20;;;;;;;27.87;16.30;;;;;;;4.90;68.82;99383.44;5126504;28;20530;-45
2021/12/10 03:24:55;;;;;;;25.77;14.73;;;;;;;4.92;68.91;99373.63;5120319;28;20419;-47
2021/12/10 03:27:27;;;;;;;26.45;15.48;;;;;;;4.93;68.91;99375.31;5122545;28;20431;-42
2021/12/10 03:30:00;;;;;;;21.23;12.97;;;;;;;4.83;68.93;99357.06;5123674;28;20422;-42
2021/12/10 03:32:33;;;;;;;27.27;13.38;;;;;;;4.95;68.95;99368.09;5127643;28;20501;-42
2021/12/10 03:35:13;;;;;;;27.42;12.63;;;;;;;4.97;68.96;99360.94;5124527;28;20431;-43
2021/12/10 03:37:47;;;;;;;18.98;12.10;;;;;;;4.95;69.02;99355.03;5126826;28;20436;-42
2021/12/10 03:40:21;;;;;;;18.02;11.45;;;;;;;4.96;69.00;99348.84;5127360;28;20416;-43
2021/12/10 03:42:58;;;;;;;18.90;11.00;;;;;;;4.97;69.03;99334.78;5126667;28;20727;-44
2021/12/10 03:45:34;;;;;;;20.13;11.02;;;;;;;4.99;68.77;99332.84;5124751;28;20425;-43
2021/12/10 03:48:11;;;;;;;19.70;10.80;;;;;;;4.94;68.96;99319.38;5130326;28;20424;-43
2021/12/10 03:50:46;;;;;;;18.65;9.90;;;;;;;5.00;68.87;99323.19;5125042;28;20424;-43
2021/12/10 03:53:20;;;;;;;21.23;10.88;;;;;;;4.98;68.89;99317.28;5126841;28;20424;-46
2021/12/10 03:55:59;;;;;;;20.02;10.82;;;;;;;4.92;68.88;99305.63;5126868;28;20440;-45
2021/12/10 03:58:32;;;;;;;21.92;9.45;;;;;;;5.04;68.89;99314.06;5125185;28;20408;-45
2021/12/10 04:01:07;;;;;;;18.67;10.27;;;;;;;5.02;68.92;99311.59;5129428;28;20975;-44
2021/12/10 04:03:41;;;;;;;18.70;10.25;;;;;;;5.07;68.94;99301.50;5126237;28;20891;-48
2021/12/10 04:06:14;;;;;;;17.15;8.57;;;;;;;4.99;68.95;99293.59;5130274;28;20416;-42
2021/12/10 04:08:48;;;;;;;17.67;8.75;;;;;;;5.09;68.75;99303.97;5124147;28;20975;-42
2021/12/10 04:11:23;;;;;;;16.83;8.65;;;;;;;5.10;68.88;99295.13;5128160;28;20427;-46
2021/12/10 04:13:56;;;;;;;19.85;8.32;;;;;;;5.12;68.67;99293.19;5125158;28;20440;-44
2021/12/10 04:16:31;;;;;;;19.63;9.07;;;;;;;5.14;68.76;99298.25;5124624;28;20450;-49
2021/12/10 04:19:07;;;;;;;16.13;8.88;;;;;;;5.15;68.66;99290.28;5126662;28;20432;-42
2021/12/10 04:21:41;;;;;;;14.55;7.80;;;;;;;5.16;68.63;99285.84;5126753;28;20903;-44
2021/12/10 04:24:19;;;;;;;17.52;7.85;;;;;;;5.17;68.76;99283.09;5127323;28;20431;-43
2021/12/10 04:26:53;;;;;;;18.20;8.00;;;;;;;5.22;68.71;99275.59;5127236;28;20407;-43
2021/12/10 04:29:26;;;;;;;16.27;7.93;;;;;;;5.24;68.65;99267.59;5126276;28;20419;-46
2021/12/10 04:32:00;;;;;;;15.68;7.80;;;;;;;5.24;68.75;99268.41;5123352;28;20416;-49
2021/12/10 04:34:32;;;;;;;17.35;7.15;;;;;;;5.23;68.67;99258.94;5127303;28;20412;-43
2021/12/10 04:37:08;;;;;;;17.17;7.43;;;;;;;5.22;68.77;99243.38;5126349;28;20430;-44
2021/12/10 04:39:45;;;;;;;19.27;8.13;;;;;;;5.24;68.48;99241.44;5128796;28;20460;-45
2021/12/10 04:42:23;;;;;;;15.82;6.85;;;;;;;5.26;68.63;99240.28;5126531;28;20415;-43
2021/12/10 04:44:59;;;;;;;13.07;6.22;;;;;;;5.28;68.81;99243.56;5129120;28;20442;-43
2021/12/10 04:47:31;;;;;;;14.80;7.45;;;;;;;5.28;68.70;99245.38;5123880;28;20434;-42
2021/12/10 04:50:07;;;;;;;11.03;6.27;;;;;;;5.29;68.68;99242.59;5126097;28;20548;-45
2021/12/10 04:52:39;;;;;;;10.88;6.00;;;;;;;5.23;68.68;99224.91;5129437;28;20428;-44
2021/12/10 04:55:15;;;;;;;16.20;7.40;;;;;;;5.35;68.52;99227.25;5128033;28;20511;-43
2021/12/10 04:57:49;;;;;;;13.45;6.38;;;;;;;5.32;68.55;99223.13;5122709;28;20501;-46
2021/12/10 05:00:26;;;;;;;12.48;5.60;;;;;;;5.30;68.50;99225.91;5126025;28;20444;-42
2021/12/10 05:03:01;;;;;;;8.83;5.10;;;;;;;5.32;68.51;99229.19;5124417;28;20400;-47
2021/12/10 05:05:35;;;;;;;10.75;6.20;;;;;;;5.31;68.68;99221.50;5125733;28;20532;-42
2021/12/10 05:08:11;;;;;;;20.30;5.70;;;;;;;5.29;68.63;99218.22;5126678;28;20428;-42
2021/12/10 05:10:44;;;;;;;12.73;7.78;;;;;;;5.30;68.68;99218.06;5125910;28;20936;-42
2021/12/10 05:13:18;;;;;;;11.60;5.85;;;;;;;5.28;68.38;99208.72;5127893;28;20436;-45
2021/12/10 05:15:56;;;;;;;10.02;6.72;;;;;;;5.29;68.41;99210.34;5124345;28;20416;-43
2021/12/10 05:18:37;;;;;;;11.27;6.10;;;;;;;5.27;68.39;99210.53;5120927;28;20412;-46
2021/12/10 05:21:12;;;;;;;12.35;6.47;;;;;;;5.27;68.36;99196.63;5126152;28;20426;-43
2021/12/10 05:23:45;;;;;;;15.00;6.75;;;;;;;5.24;68.45;99196.94;5125718;28;20507;-45
2021/12/10 05:26:17;;;;;;;12.43;7.25;;;;;;;5.23;68.41;99209.22;5126243;28;20432;-43
2021/12/10 05:28:52;;;;;;;16.70;7.25;;;;;;;5.22;68.28;99191.03;5125874;28;20412;-44
2021/12/10 05:31:25;;;;;;;14.90;7.40;;;;;;;5.27;68.21;99205.28;5126672;28;21905;-44
2021/12/10 05:33:58;;;;;;;12.63;6.55;;;;;;;5.26;68.40;99200.19;5124094;28;20919;-43
2021/12/10 05:36:30;;;;;;;13.60;6.95;;;;;;;5.27;68.28;99202.69;5127620;28;20438;-43
2021/12/10 05:39:05;;;;;;;13.10;6.93;;;;;;;5.30;68.14;99193.69;5132225;28;20422;-44
2021/12/10 05:41:37;;;;;;;13.07;7.20;;;;;;;5.31;68.12;99185.66;5135564;28;20418;-43
2021/12/10 05:44:11;;;;;;;12.93;6.57;;;;;;;5.28;68.10;99203.50;5140455;28;20418;-42
2021/12/10 05:46:43;;;;;;;12.27;4.90;;;;;;;5.29;68.16;99200.69;5137524;28;20422;-44
2021/12/10 05:49:16;;;;;;;12.27;6.18;;;;;;;5.29;68.28;99192.84;5140921;28;20422;-42
2021/12/10 05:51:48;;;;;;;11.38;5.05;;;;;;;5.30;68.11;99197.13;5133147;28;20499;-43
2021/12/10 05:54:21;;;;;;;13.63;6.13;;;;;;;5.31;68.06;99195.31;5135112;28;20411;-44
2021/12/10 05:56:53;;;;;;;10.95;5.45;;;;;;;5.21;68.27;99205.09;5145303;28;20428;-44
2021/12/10 05:59:27;;;;;;;12.95;5.65;;;;;;;5.31;68.09;99195.31;5131365;28;20464;-44
2021/12/10 06:02:00;;;;;;;10.35;5.28;;;;;;;5.19;68.09;99176.44;5127028;28;20422;-46
2021/12/10 06:04:34;;;;;;;14.82;5.55;;;;;;;5.34;68.06;99186.34;5129475;28;20440;-45
2021/12/10 06:07:07;;;;;;;15.38;5.93;;;;;;;5.40;67.88;99193.56;5130018;28;20459;-42
2021/12/10 06:09:40;;;;;;;10.15;5.13;;;;;;;5.42;67.93;99191.59;5131644;28;20791;-44
2021/12/10 06:12:12;;;;;;;9.20;4.43;;;;;;;5.42;67.84;99205.53;5129543;28;20444;-44
2021/12/10 06:14:46;;;;;;;8.98;4.90;;;;;;;5.43;67.78;99196.69;5131201;28;20424;-44
2021/12/10 06:17:18;;;;;;;12.73;5.35;;;;;;;5.44;67.76;99187.03;5132636;28;20415;-44
2021/12/10 06:19:51;;;;;;;10.65;5.07;;;;;;;5.44;67.84;99185.22;5130540;28;21015;-43
2021/12/10 06:22:23;;;;;;;10.85;5.43;;;;;;;5.45;67.75;99194.75;5134351;28;20483;-43
2021/12/10 06:24:56;;;;;;;9.30;5.07;;;;;;;5.45;67.67;99193.91;5133086;28;20417;-42
2021/12/10 06:27:28;;;;;;;12.15;5.20;;;;;;;5.48;67.74;99189.19;5130041;28;20423;-44
2021/12/10 06:30:03;;;;;;;14.52;5.15;;;;;;;5.52;67.71;99195.75;5133064;28;20419;-43
2021/12/10 06:32:36;;;;;;;9.63;4.68;;;;;;;5.55;67.61;99189.38;5133476;28;20521;-43
2021/12/10 06:35:09;;;;;;;13.32;5.32;;;;;;;5.52;67.81;99182.66;5130744;28;20832;-42
2021/12/10 06:37:43;;;;;;;15.23;4.03;;;;;;;5.42;67.69;99170.66;5132252;28;21019;-43
2021/12/10 06:40:21;;;;;;;12.80;5.30;;;;;;;5.57;67.59;99183.97;5129740;28;21016;-48
2021/12/10 06:42:55;;;;;;;8.88;4.68;;;;;;;5.59;67.56;99192.50;5130449;28;20911;-45
2021/12/10 06:45:30;;;;;;;12.10;4.68;;;;;;;5.55;67.81;99192.81;5129121;28;20427;-44
2021/12/10 06:48:09;;;;;;;10.80;4.00;;;;;;;5.57;67.74;99202.31;5126097;28;20420;-44
2021/12/10 06:50:46;;;;;;;8.43;3.67;;;;;;;5.55;67.70;99203.28;5127177;28;20412;-43
2021/12/10 06:53:22;;;;;;;9.93;3.85;;;;;;;5.58;67.77;99196.09;5128606;28;20420;-44
2021/12/10 06:55:55;;;;;;;14.77;4.63;;;;;;;5.57;67.71;99204.91;5132024;28;20420;-46
2021/12/10 06:58:31;;;;;;;8.85;4.57;;;;;;;5.58;67.66;99209.19;5131844;28;20456;-49
2021/12/10 07:01:11;;;;;;;15.32;5.05;;;;;;;5.60;67.49;99209.84;5126690;28;20443;-43
2021/12/10 07:03:45;;;;;;;11.00;4.80;;;;;;;5.59;67.51;99197.75;5129167;28;20928;-45
2021/12/10 07:06:18;;;;;;;12.65;4.85;;;;;;;5.61;67.45;99204.47;5132575;28;20501;-42
2021/12/10 07:08:52;;;;;;;11.15;4.50;;;;;;;5.53;67.40;99189.53;5128923;28;20587;-42
2021/12/10 07:11:26;;;;;;;10.52;4.78;;;;;;;5.62;67.53;99193.00;5131738;28;20767;-44
2021/12/10 07:13:59;;;;;;;12.18;4.50;;;;;;;5.66;67.17;99203.97;5133530;28;20540;-40
2021/12/10 07:16:34;;;;;;;11.25;4.93;;;;;;;5.64;67.38;99205.94;5125369;28;20784;-43
2021/12/10 07:19:08;;;;;;;11.20;4.60;;;;;;;5.64;67.33;99206.78;5131679;28;20423;-42
2021/12/10 07:21:41;;;;;;;17.02;6.75;;;;;;;5.66;67.21;99204.78;5128874;28;20427;-44
2021/12/10 07:24:16;;;;;;;13.93;4.78;;;;;;;5.58;67.26;99198.72;5130033;28;20912;-44
2021/12/10 07:26:50;;;;;;;10.20;5.03;;;;;;;5.63;67.27;99212.97;5131425;28;21034;-45
2021/12/10 07:29:23;;;;;;;11.15;5.68;;;;;;;5.60;67.23;99220.31;5127910;28;20551;-47
2021/12/10 07:31:57;;;;;;;15.15;5.95;;;;;;;5.59;67.21;99214.25;5128370;28;20432;-42
2021/12/10 07:34:29;;;;;;;16.23;5.70;;;;;;;5.61;67.07;99216.75;5126366;28;20511;-43
2021/12/10 07:37:02;;;;;;;11.13;4.97;;;;;;;5.58;67.17;99212.63;5128457;28;20782;-43
2021/12/10 07:39:35;;;;;;;14.10;5.80;;;;;;;5.59;67.02;99216.06;5129404;28;20419;-44
2021/12/10 07:42:09;;;;;;;19.90;6.80;;;;;;;5.59;67.11;99223.94;5128443;28;20915;-45
2021/12/10 07:44:42;;;;;;;19.50;7.05;;;;;;;5.58;66.98;99219.69;5127988;28;20420;-44
2021/12/10 07:47:15;;;;;;;15.40;6.45;;;;;;;5.54;67.08;99229.63;5127470;28;20438;-46
2021/12/10 07:49:48;;;;;;;10.97;5.83;;;;;;;5.49;67.04;99227.50;5131165;28;20524;-43
2021/12/10 07:52:25;;;;;;;15.85;7.25;;;;;;;5.45;66.79;99223.56;5130056;28;20466;-43
2021/12/10 07:54:57;;;;;;;15.52;7.60;;;;;;;5.46;66.93;99227.78;5131642;28;20440;-43
2021/12/10 07:57:30;;;;;;;15.02;5.88;;;;;;;5.45;66.91;99223.56;5124638;28;20427;-44
2021/12/10 08:00:03;;;;;;;15.30;6.85;;;;;;;5.46;66.80;99229.59;5128021;28;20420;-43
2021/12/10 08:02:37;;;;;;;13.07;6.40;;;;;;;5.18;66.79;99189.72;5129068;28;20980;-44
2021/12/10 08:05:13;;;;;;;18.75;8.32;;;;;;;5.42;66.84;99225.63;5127367;28;20527;-46
2021/12/10 08:08:45;;;;;;;16.50;5.78;;;;;;;5.44;66.77;99227.13;5129873;28;20480;-43
2021/12/10 08:11:19;;;;;;;9.55;5.45;;;;;;;5.39;66.89;99234.66;5120605;28;20428;-48
2021/12/10 08:13:51;;;;;;;9.23;5.68;;;;;;;5.40;66.82;99232.84;5122874;28;20430;-44
2021/12/10 08:16:25;;;;;;;13.55;6.20;;;;;;;5.43;66.89;99230.72;5123251;28;20428;-44
2021/12/10 08:18:59;;;;;;;12.88;5.82;;;;;;;5.41;66.69;99237.91;5125981;28;20950;-45
2021/12/10 08:21:31;;;;;;;14.43;6.07;;;;;;;5.45;66.78;99239.25;5120994;28;20522;-48
2021/12/10 08:24:04;;;;;;;15.55;7.28;;;;;;;5.47;66.77;99231.22;5127136;28;20412;-44
2021/12/10 08:26:38;;;;;;;17.80;6.88;;;;;;;5.50;66.49;99242.22;5124567;28;20420;-46
2021/12/10 08:29:12;;;;;;;12.33;5.43;;;;;;;5.49;66.58;99235.34;5127621;28;20470;-44
2021/12/10 08:31:44;;;;;;;11.82;5.20;;;;;;;5.46;66.46;99229.59;5126448;28;20772;-46
2021/12/10 08:34:18;;;;;;;12.75;5.97;;;;;;;5.47;66.69;99239.09;5125866;28;20430;-45
2021/12/10 08:36:51;;;;;;;14.25;5.97;;;;;;;5.41;66.58;99237.09;5130782;28;20797;-45
2021/12/10 08:39:23;;;;;;;13.50;6.80;;;;;;;5.45;66.54;99236.63;5128632;28;20491;-46
2021/12/10 08:41:56;;;;;;;16.20;6.35;;;;;;;5.46;66.53;99235.66;5125647;28;20575;-44
2021/12/10 08:44:29;;;;;;;14.50;7.35;;;;;;;5.47;66.65;99239.09;5126112;28;20437;-47
2021/12/10 08:47:01;;;;;;;15.88;7.35;;;;;;;5.32;66.46;99212.66;5125287;28;20427;-45
2021/12/10 08:49:38;;;;;;;14.13;7.63;;;;;;;5.50;66.55;99247.44;5121403;28;20428;-44
2021/12/10 08:52:12;;;;;;;23.48;7.32;;;;;;;5.54;66.44;99248.78;5123876;28;20424;-44
2021/12/10 08:54:45;;;;;;;12.75;7.75;;;;;;;5.58;66.34;99258.97;5128263;28;20447;-45
2021/12/10 08:57:17;;;;;;;17.20;7.13;;;;;;;5.60;66.25;99262.22;5129258;28;20763;-45
2021/12/10 08:59:49;;;;;;;15.03;7.90;;;;;;;5.51;66.38;99256.13;5125788;28;20415;-47
2021/12/10 09:02:22;;;;;;;11.32;6.28;;;;;;;5.61;66.30;99269.13;5126332;28;20424;-47
2021/12/10 09:04:56;;;;;;;15.45;7.38;;;;;;;5.66;66.29;99272.06;5123796;28;20422;-43
2021/12/10 09:07:28;;;;;;;13.90;6.85;;;;;;;5.68;66.12;99270.13;5124191;28;20831;-43
2021/12/10 09:10:01;;;;;;;13.38;6.28;;;;;;;5.69;66.23;99274.38;5122179;28;20547;-44
2021/12/10 09:12:34;;;;;;;13.93;5.82;;;;;;;5.72;66.11;99281.94;5125776;28;20999;-44
2021/12/10 09:15:09;;;;;;;15.13;7.07;;;;;;;5.73;66.33;99284.41;5125675;28;20483;-44
2021/12/10 09:17:42;;;;;;;11.23;6.03;;;;;;;5.72;66.14;99281.94;5123792;28;20440;-43
2021/12/10 09:20:19;;;;;;;16.40;6.70;;;;;;;5.74;66.06;99280.78;5124217;28;20424;-44
2021/12/10 09:22:53;;;;;;;16.35;9.27;;;;;;;5.74;66.07;99288.66;5125065;28;20446;-44
2021/12/10 09:25:26;;;;;;;15.02;6.07;;;;;;;5.73;66.05;99286.22;5126399;28;20440;-43
2021/12/10 09:27:59;;;;;;;29.95;6.07;;;;;;;5.69;66.08;99292.72;5127334;28;20770;-42
2021/12/10 09:30:34;;;;;;;12.30;6.72;;;;;;;5.68;65.95;99293.69;5123088;28;20875;-43
2021/12/10 09:34:02;;;;;;;13.47;6.20;;;;;;;5.66;66.03;99299.06;5121099;28;20424;-44
2021/12/10 09:36:36;;;;;;;15.23;6.53;;;;;;;5.66;66.05;99303.50;5119257;28;20867;-44
2021/12/10 09:39:10;;;;;;;19.77;7.72;;;;;;;5.70;65.96;99304.84;5119745;28;20433;-45
2021/12/10 09:41:43;;;;;;;14.52;6.72;;;;;;;5.72;65.84;99303.69;5120110;28;20438;-45
2021/12/10 09:44:17;;;;;;;18.83;6.85;;;;;;;5.74;65.88;99324.50;5122082;28;20450;-44
2021/12/10 09:46:52;;;;;;;21.05;7.75;;;;;;;5.79;65.74;99314.38;5121095;28;20892;-44
2021/12/10 09:49:27;;;;;;;18.13;7.47;;;;;;;5.78;65.83;99307.50;5121879;28;20563;-44
2021/12/10 09:52:07;;;;;;;15.57;5.72;;;;;;;5.81;65.65;99309.81;5120582;28;20420;-49
2021/12/10 09:54:40;;;;;;;15.45;6.80;;;;;;;5.81;65.78;99311.59;5121501;28;20450;-45
2021/12/10 09:57:16;;;;;;;17.25;7.07;;;;;;;5.82;65.83;99319.28;5120273;28;20432;-43
2021/12/10 09:59:52;;;;;;;19.55;6.28;;;;;;;5.86;65.81;99320.66;5125616;28;22375;-50
2021/12/10 10:02:26;;;;;;;17.30;6.90;;;;;;;5.89;65.71;99317.72;5122564;28;20436;-47
2021/12/10 10:04:59;;;;;;;13.63;6.50;;;;;;;5.88;65.68;99328.34;5119886;28;20431;-41
2021/12/10 10:07:33;;;;;;;19.58;7.15;;;;;;;5.87;65.71;99326.69;5122345;28;20432;-43
2021/12/10 10:10:12;;;;;;;22.98;7.22;;;;;;;5.81;65.91;99327.31;5123917;28;20440;-43
2021/12/10 10:12:49;;;;;;;21.90;9.45;;;;;;;5.85;65.78;99329.47;5120963;28;20438;-43
2021/12/10 10:15:26;;;;;;;15.73;7.22;;;;;;;5.86;65.65;99320.66;5123584;28;20404;-44
2021/12/10 10:18:06;;;;;;;18.60;7.63;;;;;;;5.91;65.69;99331.47;5118885;28;20434;-45
2021/12/10 10:20:44;;;;;;;13.73;6.18;;;;;;;5.95;65.67;99322.34;5123127;28;20427;-46
2021/12/10 10:23:18;;;;;;;16.27;6.97;;;;;;;6.04;65.60;99322.38;5127884;28;20434;-47
2021/12/10 10:25:56;;;;;;;23.60;7.67;;;;;;;6.05;65.61;99318.78;5127287;28;20428;-44
2021/12/10 10:28:29;;;;;;;15.20;6.63;;;;;;;6.06;65.57;99315.19;5122669;28;20430;-42
2021/12/10 10:31:09;;;;;;;15.60;7.28;;;;;;;6.14;65.52;99317.84;5130476;28;20439;-44
2021/12/10 10:33:42;;;;;;;22.52;7.15;;;;;;;6.15;65.58;99314.22;5126023;28;20734;-44
2021/12/10 10:36:19;;;;;;;16.98;7.25;;;;;;;6.17;65.36;99304.41;5126187;28;20444;-46
2021/12/10 10:38:57;;;;;;;12.18;6.10;;;;;;;6.25;65.32;99312.28;5126513;28;20427;-44
2021/12/10 10:41:33;;;;;;;18.50;6.60;;;;;;;6.17;65.58;99312.28;5123349;28;20424;-50
2021/12/10 10:44:06;;;;;;;19.98;7.15;;;;;;;6.14;65.69;99317.84;5135057;28;20495;-45
2021/12/10 10:46:39;;;;;;;15.63;7.53;;;;;;;6.16;65.58;99327.19;5130448;28;20433;-44
2021/12/10 10:49:30;;;;;;;14.85;6.95;;;;;;;6.18;65.53;99319.16;5129205;28;20529;-44
2021/12/10 10:52:18;;;;;;;20.85;7.82;;;;;;;6.23;65.45;99322.13;5123375;28;20523;-48
2021/12/10 10:54:54;;;;;;;17.65;7.03;;;;;;;6.25;65.42;99320.16;5128027;28;20784;-45
2021/12/10 10:57:29;;;;;;;14.65;7.72;;;;;;;6.30;65.33;99323.13;5126206;28;20615;-44
2021/12/10 11:00:22;;;;;;;18.80;8.07;;;;;;;6.30;65.39;99328.38;5124358;28;20987;-45
2021/12/10 11:02:58;;;;;;;21.67;9.32;;;;;;;6.24;65.57;99318.53;5130481;28;20428;-46
2021/12/10 11:05:32;;;;;;;13.40;7.45;;;;;;;6.29;65.35;99324.13;5124317;28;20863;-45
2021/12/10 11:08:07;;;;;;;12.55;6.78;;;;;;;6.19;65.28;99326.03;5123691;28;20416;-47
2021/12/10 11:10:45;;;;;;;18.05;8.48;;;;;;;6.24;65.41;99323.78;5124727;28;20491;-44
2021/12/10 11:13:23;;;;;;;17.48;8.32;;;;;;;6.33;65.37;99330.69;5126733;28;20443;-43
2021/12/10 11:16:01;;;;;;;20.17;7.55;;;;;;;6.34;65.27;99334.94;5126175;28;20512;-44
2021/12/10 11:18:46;;;;;;;23.70;8.90;;;;;;;6.29;65.28;99336.38;5124824;28;21049;-45
2021/12/10 11:21:38;;;;;;;20.17;7.97;;;;;;;6.23;65.33;99317.72;5125016;28;20515;-45
2021/12/10 11:24:21;;;;;;;15.00;8.13;;;;;;;6.37;65.14;99324.13;5125142;28;20507;-45
2021/12/10 11:26:59;;;;;;;19.63;7.40;;;;;;;6.38;65.20;99327.56;5125162;28;20451;-44
2021/12/10 11:29:45;;;;;;;16.52;6.60;;;;;;;6.40;65.14;99338.72;5122589;28;20467;-44
2021/12/10 11:32:27;;;;;;;15.10;7.88;;;;;;;6.41;65.20;99343.81;5119364;28;20436;-44
2021/12/10 11:35:13;;;;;;;18.25;9.20;;;;;;;6.45;65.05;99334.66;5118953;28;20450;-46
2021/12/10 11:37:55;;;;;;;17.60;7.55;;;;;;;6.50;65.00;99346.44;5125125;28;20440;-44
2021/12/10 11:40:50;;;;;;;16.83;7.90;;;;;;;6.49;64.94;99342.19;5122829;28;20459;-50
2021/12/10 11:49:26;;;;;;;19.98;7.65;;;;;;;6.55;64.79;99344.19;5118156;28;20900;-44
2021/12/10 11:52:03;;;;;;;13.88;7.63;;;;;;;6.55;64.54;99337.13;5120583;28;20522;-43
2021/12/10 11:54:40;;;;;;;18.40;7.10;;;;;;;6.69;64.72;99349.63;5118387;28;20447;-51
2021/12/10 11:57:17;;;;;;;17.83;7.28;;;;;;;6.74;64.61;99354.38;5120628;28;20432;-43
2021/12/10 11:59:56;;;;;;;18.40;7.30;;;;;;;6.68;64.64;99344.53;5120263;28;20408;-46
2021/12/10 12:02:33;;;;;;;18.70;8.30;;;;;;;6.73;64.68;99352.75;5119421;28;20436;-48
2021/12/10 12:05:13;;;;;;;16.50;7.65;;;;;;;6.66;64.61;99354.38;5117256;28;20923;-45
2021/12/10 12:07:47;;;;;;;17.52;8.25;;;;;;;6.55;64.66;99359.91;5120889;28;20422;-44
2021/12/10 12:10:24;;;;;;;17.63;8.67;;;;;;;6.53;64.61;99359.25;5121444;28;20438;-44
2021/12/10 12:13:08;;;;;;;21.67;8.18;;;;;;;6.60;64.59;99361.09;5121358;28;20436;-44
2021/12/10 12:15:46;;;;;;;19.50;8.68;;;;;;;6.64;64.45;99372.06;5123034;28;20438;-45
2021/12/10 12:18:26;;;;;;;17.60;8.18;;;;;;;6.56;64.92;99374.66;5121580;28;20442;-43
2021/12/10 12:21:01;;;;;;;18.17;8.55;;;;;;;6.49;64.53;99378.91;5123615;28;20426;-43
2021/12/10 12:26:30;;;;;;;17.60;8.48;;;;;;;6.51;64.49;99382.22;5119896;28;20436;-44
2021/12/10 12:29:08;;;;;;;16.10;7.93;;;;;;;6.43;64.38;99385.59;5120535;28;20428;-43